createdAt,value
2023-04-26T00:00:11.347Z,957.3918
2023-04-26T00:01:12.042Z,957.3937
2023-04-26T00:02:12.797Z,957.4105
2023-04-26T00:03:13.628Z,957.4236
2023-04-26T00:04:14.817Z,957.4363
2023-04-26T00:05:15.742Z,957.4432
2023-04-26T00:06:16.455Z,957.4459
2023-04-26T00:07:17.138Z,957.4582
2023-04-26T00:08:17.776Z,957.4546
2023-04-26T00:09:18.505Z,957.4595
2023-04-26T00:10:19.171Z,957.4573
2023-04-26T00:11:19.835Z,957.4568
2023-04-26T00:12:20.542Z,957.4600
2023-04-26T00:13:21.260Z,957.4682
2023-04-26T00:14:21.900Z,957.4741
2023-04-26T00:15:22.584Z,957.4800
2023-04-26T00:16:23.255Z,957.4800
2023-04-26T00:17:23.896Z,957.4850
2023-04-26T00:18:24.516Z,957.4854
2023-04-26T00:19:25.159Z,957.4913
2023-04-26T00:20:25.787Z,957.4954
2023-04-26T00:21:26.439Z,957.4913
2023-04-26T00:22:27.052Z,957.4904
2023-04-26T00:23:27.730Z,957.5027
2023-04-26T00:24:28.468Z,957.5123
2023-04-26T00:25:29.130Z,957.5305
2023-04-26T00:26:29.773Z,957.5491
2023-04-26T00:27:30.430Z,957.5728
2023-04-26T00:28:31.045Z,957.5854
2023-04-26T00:29:31.748Z,957.5945
2023-04-26T00:30:32.445Z,957.5905
2023-04-26T00:31:33.107Z,957.5869
2023-04-26T00:32:33.751Z,957.5746
2023-04-26T00:33:34.475Z,957.5659
2023-04-26T00:34:35.167Z,957.5609
2023-04-26T00:35:35.834Z,957.5522
2023-04-26T00:36:36.608Z,957.5441
2023-04-26T00:37:37.336Z,957.5377
2023-04-26T00:38:37.960Z,957.5209
2023-04-26T00:39:38.700Z,957.5128
2023-04-26T00:40:39.374Z,957.5091
2023-04-26T00:41:40.084Z,957.5150
2023-04-26T00:42:40.741Z,957.5278
2023-04-26T00:43:41.426Z,957.5382
2023-04-26T00:44:42.110Z,957.5377
2023-04-26T00:45:42.839Z,957.5336
2023-04-26T00:46:43.471Z,957.5323
2023-04-26T00:47:44.162Z,957.5327
2023-04-26T00:48:44.790Z,957.5264
2023-04-26T00:49:45.483Z,957.5146
2023-04-26T00:50:46.159Z,957.5078
2023-04-26T00:51:46.829Z,957.4882
2023-04-26T00:52:47.558Z,957.4623
2023-04-26T00:53:48.210Z,957.4518
2023-04-26T00:54:48.939Z,957.4450
2023-04-26T00:55:49.661Z,957.4518
2023-04-26T00:56:50.348Z,957.4614
2023-04-26T00:57:51.000Z,957.4772
2023-04-26T00:58:51.870Z,957.4937
2023-04-26T00:59:52.828Z,957.5104
2023-04-26T01:00:53.811Z,957.5204
2023-04-26T01:01:54.530Z,957.5295
2023-04-26T01:02:55.314Z,957.5432
2023-04-26T01:03:56.131Z,957.5405
2023-04-26T01:04:57.037Z,957.5550
2023-04-26T01:05:57.688Z,957.5546
2023-04-26T01:06:58.390Z,957.5522
2023-04-26T01:07:59.102Z,957.5482
2023-04-26T01:08:59.773Z,957.5364
2023-04-26T01:10:00.464Z,957.5182
2023-04-26T01:11:01.157Z,957.5004
2023-04-26T01:12:01.867Z,957.4886
2023-04-26T01:13:02.582Z,957.4709
2023-04-26T01:14:03.257Z,957.4573
2023-04-26T01:15:03.978Z,957.4554
2023-04-26T01:16:04.694Z,957.4528
2023-04-26T01:17:05.340Z,957.4559
2023-04-26T01:18:06.093Z,957.4614
2023-04-26T01:19:06.735Z,957.4650
2023-04-26T01:20:07.422Z,957.4727
2023-04-26T01:21:08.126Z,957.4641
2023-04-26T01:22:08.873Z,957.4537
2023-04-26T01:23:09.535Z,957.4473
2023-04-26T01:24:10.209Z,957.4396
2023-04-26T01:25:10.898Z,957.4277
2023-04-26T01:26:11.595Z,957.4304
2023-04-26T01:27:12.230Z,957.4346
2023-04-26T01:28:12.878Z,957.4423
2023-04-26T01:29:13.598Z,957.4313
2023-04-26T01:30:14.361Z,957.4218
2023-04-26T01:31:15.030Z,957.4027
2023-04-26T01:32:15.734Z,957.3859
2023-04-26T01:33:16.472Z,957.3887
2023-04-26T01:34:17.192Z,957.3954
2023-04-26T01:35:17.916Z,957.4086
2023-04-26T01:36:18.565Z,957.4073
2023-04-26T01:37:19.231Z,957.4050
2023-04-26T01:38:19.963Z,957.4055
2023-04-26T01:39:20.603Z,957.3973
2023-04-26T01:40:21.358Z,957.3954
2023-04-26T01:41:21.984Z,957.3987
2023-04-26T01:42:22.689Z,957.4019
2023-04-26T01:43:23.388Z,957.4036
2023-04-26T01:44:24.053Z,957.4118
2023-04-26T01:45:24.739Z,957.4141
2023-04-26T01:46:25.442Z,957.4027
2023-04-26T01:47:26.121Z,957.3904
2023-04-26T01:48:26.784Z,957.3787
2023-04-26T01:49:27.455Z,957.3709
2023-04-26T01:50:28.122Z,957.3622
2023-04-26T01:51:28.962Z,957.3491
2023-04-26T01:52:29.784Z,957.3287
2023-04-26T01:53:30.531Z,957.3054
2023-04-26T01:54:31.189Z,957.2832
2023-04-26T01:55:31.855Z,957.2714
2023-04-26T01:56:32.666Z,957.2668
2023-04-26T01:57:33.407Z,957.2646
2023-04-26T01:58:34.100Z,957.2719
2023-04-26T01:59:34.737Z,957.2814
2023-04-26T02:00:35.454Z,957.2814
2023-04-26T02:01:36.118Z,957.2750
2023-04-26T02:02:36.945Z,957.2714
2023-04-26T02:03:37.844Z,957.2696
2023-04-26T02:04:38.565Z,957.2750
2023-04-26T02:05:39.194Z,957.2637
2023-04-26T02:06:39.896Z,957.2587
2023-04-26T02:07:40.609Z,957.2437
2023-04-26T02:08:41.247Z,957.2268
2023-04-26T02:09:41.943Z,957.2186
2023-04-26T02:10:42.659Z,957.2064
2023-04-26T02:11:43.358Z,957.1896
2023-04-26T02:12:44.066Z,957.1768
2023-04-26T02:13:44.711Z,957.1636
2023-04-26T02:14:45.361Z,957.1482
2023-04-26T02:15:46.127Z,957.1332
2023-04-26T02:16:46.881Z,957.1122
2023-04-26T02:17:47.547Z,957.0923
2023-04-26T02:18:48.289Z,957.0709
2023-04-26T02:19:48.939Z,957.0637
2023-04-26T02:20:49.650Z,957.0536
2023-04-26T02:21:50.337Z,957.0482
2023-04-26T02:22:50.998Z,957.0482
2023-04-26T02:23:51.629Z,957.0327
2023-04-26T02:24:52.319Z,957.0269
2023-04-26T02:25:52.987Z,957.0100
2023-04-26T02:26:53.682Z,957.0096
2023-04-26T02:27:54.357Z,957.0050
2023-04-26T02:28:55.159Z,957.0073
2023-04-26T02:29:55.846Z,957.0013
2023-04-26T02:30:56.556Z,957.0059
2023-04-26T02:31:57.377Z,956.9977
2023-04-26T02:32:58.092Z,956.9882
2023-04-26T02:33:58.778Z,956.9946
2023-04-26T02:34:59.527Z,957.0050
2023-04-26T02:36:00.186Z,957.0178
2023-04-26T02:37:00.912Z,957.0255
2023-04-26T02:38:01.632Z,957.0332
2023-04-26T02:39:02.325Z,957.0341
2023-04-26T02:40:03.054Z,957.0232
2023-04-26T02:41:03.940Z,957.0200
2023-04-26T02:42:04.708Z,957.0204
2023-04-26T02:43:05.385Z,957.0232
2023-04-26T02:44:06.091Z,957.0273
2023-04-26T02:45:06.854Z,957.0291
2023-04-26T02:46:07.563Z,957.0282
2023-04-26T02:47:08.321Z,957.0255
2023-04-26T02:48:09.083Z,957.0200
2023-04-26T02:49:09.750Z,957.0237
2023-04-26T02:50:10.420Z,957.0182
2023-04-26T02:51:11.104Z,957.0273
2023-04-26T02:52:11.814Z,957.0396
2023-04-26T02:53:12.514Z,957.0554
2023-04-26T02:54:13.252Z,957.0728
2023-04-26T02:55:13.928Z,957.0814
2023-04-26T02:56:14.620Z,957.0887
2023-04-26T02:57:15.287Z,957.0945
2023-04-26T02:58:16.000Z,957.0918
2023-04-26T02:59:16.673Z,957.0941
2023-04-26T03:00:17.399Z,957.0932
2023-04-26T03:01:18.159Z,957.0900
2023-04-26T03:02:18.970Z,957.0854
2023-04-26T03:03:19.910Z,957.0791
2023-04-26T03:04:21.030Z,957.0846
2023-04-26T03:05:21.705Z,957.0859
2023-04-26T03:06:22.428Z,957.0814
2023-04-26T03:07:23.138Z,957.0754
2023-04-26T03:08:23.988Z,957.0541
2023-04-26T03:09:24.606Z,957.0373
2023-04-26T03:10:25.285Z,957.0228
2023-04-26T03:11:26.011Z,957.0137
2023-04-26T03:12:26.123Z,957.0129
2023-04-26T03:13:26.852Z,957.0164
2023-04-26T03:14:27.528Z,957.0309
2023-04-26T03:15:28.216Z,957.0432
2023-04-26T03:16:28.969Z,957.0568
2023-04-26T03:17:29.625Z,957.0754
2023-04-26T03:18:30.363Z,957.0823
2023-04-26T03:19:31.020Z,957.0768
2023-04-26T03:20:31.685Z,957.0800
2023-04-26T03:21:32.357Z,957.0818
2023-04-26T03:22:33.036Z,957.0773
2023-04-26T03:23:33.760Z,957.0873
2023-04-26T03:24:34.448Z,957.0991
2023-04-26T03:25:35.154Z,957.1018
2023-04-26T03:26:35.838Z,957.0986
2023-04-26T03:27:36.506Z,957.1009
2023-04-26T03:28:37.203Z,957.0981
2023-04-26T03:29:37.920Z,957.0991
2023-04-26T03:30:38.621Z,957.1027
2023-04-26T03:31:39.461Z,957.0973
2023-04-26T03:32:40.185Z,957.0854
2023-04-26T03:33:40.787Z,957.0791
2023-04-26T03:34:41.490Z,957.0869
2023-04-26T03:35:42.192Z,957.0964
2023-04-26T03:36:42.927Z,957.1091
2023-04-26T03:37:43.575Z,957.1227
2023-04-26T03:38:44.247Z,957.1373
2023-04-26T03:39:44.952Z,957.1505
2023-04-26T03:40:45.684Z,957.1582
2023-04-26T03:41:46.367Z,957.1646
2023-04-26T03:42:47.122Z,957.1559
2023-04-26T03:43:47.767Z,957.1450
2023-04-26T03:44:48.466Z,957.1300
2023-04-26T03:45:49.148Z,957.1122
2023-04-26T03:46:49.902Z,957.0981
2023-04-26T03:47:50.693Z,957.0823
2023-04-26T03:48:51.703Z,957.0718
2023-04-26T03:49:52.808Z,957.0582
2023-04-26T03:50:53.505Z,957.0482
2023-04-26T03:51:54.181Z,957.0287
2023-04-26T03:52:54.882Z,957.0146
2023-04-26T03:53:55.593Z,957.0032
2023-04-26T03:54:56.264Z,956.9937
2023-04-26T03:55:56.936Z,956.9813
2023-04-26T03:56:57.619Z,956.9781
2023-04-26T03:57:58.534Z,956.9777
2023-04-26T03:58:59.173Z,956.9768
2023-04-26T03:59:59.934Z,956.9718
2023-04-26T04:01:00.571Z,956.9727
2023-04-26T04:02:01.267Z,956.9695
2023-04-26T04:03:02.016Z,956.9587
2023-04-26T04:04:02.935Z,956.9454
2023-04-26T04:05:03.853Z,956.9359
2023-04-26T04:06:04.620Z,956.9313
2023-04-26T04:07:05.308Z,956.9313
2023-04-26T04:08:06.017Z,956.9296
2023-04-26T04:09:06.728Z,956.9327
2023-04-26T04:10:07.401Z,956.9396
2023-04-26T04:11:08.137Z,956.9514
2023-04-26T04:12:08.834Z,956.9650
2023-04-26T04:13:09.547Z,956.9741
2023-04-26T04:14:10.302Z,956.9813
2023-04-26T04:15:10.998Z,956.9809
2023-04-26T04:16:11.756Z,956.9822
2023-04-26T04:17:12.428Z,956.9827
2023-04-26T04:18:13.177Z,956.9777
2023-04-26T04:19:13.888Z,956.9841
2023-04-26T04:20:14.622Z,956.9822
2023-04-26T04:21:15.347Z,956.9891
2023-04-26T04:22:16.071Z,956.9982
2023-04-26T04:23:16.787Z,956.9963
2023-04-26T04:24:17.429Z,956.9973
2023-04-26T04:25:18.108Z,956.9991
2023-04-26T04:26:18.754Z,956.9977
2023-04-26T04:27:19.523Z,957.0013
2023-04-26T04:28:20.174Z,957.0050
2023-04-26T04:29:20.875Z,957.0087
2023-04-26T04:30:21.584Z,957.0114
2023-04-26T04:31:22.363Z,957.0223
2023-04-26T04:32:23.181Z,957.0332
2023-04-26T04:33:23.878Z,957.0454
2023-04-26T04:34:24.575Z,957.0496
2023-04-26T04:35:25.251Z,957.0418
2023-04-26T04:36:25.924Z,957.0359
2023-04-26T04:37:26.615Z,957.0245
2023-04-26T04:38:27.315Z,957.0282
2023-04-26T04:39:27.953Z,957.0255
2023-04-26T04:40:28.663Z,957.0287
2023-04-26T04:41:29.404Z,957.0350
2023-04-26T04:42:30.087Z,957.0314
2023-04-26T04:43:31.087Z,957.0241
2023-04-26T04:44:31.885Z,957.0204
2023-04-26T04:45:32.574Z,957.0187
2023-04-26T04:46:33.312Z,957.0164
2023-04-26T04:47:34.247Z,957.0168
2023-04-26T04:48:34.995Z,957.0282
2023-04-26T04:49:35.710Z,957.0345
2023-04-26T04:50:36.394Z,957.0432
2023-04-26T04:51:37.122Z,957.0587
2023-04-26T04:52:37.923Z,957.0732
2023-04-26T04:53:38.638Z,957.0791
2023-04-26T04:54:39.250Z,957.0850
2023-04-26T04:55:39.980Z,957.0732
2023-04-26T04:56:40.622Z,957.0854
2023-04-26T04:57:43.117Z,957.0964
2023-04-26T04:58:43.948Z,957.1068
2023-04-26T04:59:44.737Z,957.1277
2023-04-26T05:00:45.412Z,957.1459
2023-04-26T05:01:46.134Z,957.1518
2023-04-26T05:02:46.951Z,957.1618
2023-04-26T05:03:47.776Z,957.1682
2023-04-26T05:04:48.541Z,957.1804
2023-04-26T05:05:49.294Z,957.1959
2023-04-26T05:06:50.039Z,957.2037
2023-04-26T05:07:50.900Z,957.2127
2023-04-26T05:08:51.628Z,957.2200
2023-04-26T05:09:52.325Z,957.2286
2023-04-26T05:10:52.958Z,957.2259
2023-04-26T05:11:53.620Z,957.2322
2023-04-26T05:12:54.340Z,957.2368
2023-04-26T05:13:55.592Z,957.2396
2023-04-26T05:14:56.699Z,957.2396
2023-04-26T05:15:57.503Z,957.2396
2023-04-26T05:16:58.205Z,957.2473
2023-04-26T05:17:58.966Z,957.2509
2023-04-26T05:18:59.670Z,957.2600
2023-04-26T05:20:00.494Z,957.2814
2023-04-26T05:21:01.201Z,957.3087
2023-04-26T05:22:01.907Z,957.3259
2023-04-26T05:23:02.626Z,957.3369
2023-04-26T05:24:03.363Z,957.3572
2023-04-26T05:25:04.064Z,957.3723
2023-04-26T05:26:04.747Z,957.3896
2023-04-26T05:27:05.443Z,957.4014
2023-04-26T05:28:06.144Z,957.4154
2023-04-26T05:29:06.811Z,957.4218
2023-04-26T05:30:07.454Z,957.4213
2023-04-26T05:31:10.632Z,957.4100
2023-04-26T05:32:09.354Z,957.4019
2023-04-26T05:33:10.073Z,957.3918
2023-04-26T05:34:10.743Z,957.3809
2023-04-26T05:35:11.397Z,957.3687
2023-04-26T05:36:12.083Z,957.3600
2023-04-26T05:37:12.742Z,957.3559
2023-04-26T05:38:13.485Z,957.3423
2023-04-26T05:39:14.157Z,957.3204
2023-04-26T05:40:14.837Z,957.3050
2023-04-26T05:41:15.570Z,957.2946
2023-04-26T05:42:17.855Z,957.2918
2023-04-26T05:43:19.136Z,957.2927
2023-04-26T05:44:19.928Z,957.3118
2023-04-26T05:45:20.626Z,957.3323
2023-04-26T05:46:21.607Z,957.3419
2023-04-26T05:47:22.613Z,957.3554
2023-04-26T05:48:23.331Z,957.3732
2023-04-26T05:49:24.017Z,957.3868
2023-04-26T05:50:24.749Z,957.4141
2023-04-26T05:51:25.456Z,957.4241
2023-04-26T05:52:26.179Z,957.4387
2023-04-26T05:53:26.923Z,957.4418
2023-04-26T05:54:27.628Z,957.4423
2023-04-26T05:55:28.367Z,957.4413
2023-04-26T05:56:29.121Z,957.4550
2023-04-26T05:57:29.943Z,957.4595
2023-04-26T05:58:30.662Z,957.4686
2023-04-26T05:59:31.376Z,957.4741
2023-04-26T06:00:32.108Z,957.4781
2023-04-26T06:01:32.873Z,957.4904
2023-04-26T06:02:33.876Z,957.5013
2023-04-26T06:03:35.151Z,957.5137
2023-04-26T06:04:36.191Z,957.5219
2023-04-26T06:05:36.944Z,957.5182
2023-04-26T06:06:37.785Z,957.5168
2023-04-26T06:07:38.499Z,957.5073
2023-04-26T06:08:39.229Z,957.5182
2023-04-26T06:09:39.935Z,957.5232
2023-04-26T06:10:40.673Z,957.5282
2023-04-26T06:11:41.321Z,957.5345
2023-04-26T06:12:42.056Z,957.5518
2023-04-26T06:13:43.126Z,957.5582
2023-04-26T06:14:43.946Z,957.5677
2023-04-26T06:15:44.605Z,957.5877
2023-04-26T06:16:45.428Z,957.6036
2023-04-26T06:17:46.132Z,957.6172
2023-04-26T06:18:46.902Z,957.6318
2023-04-26T06:19:47.698Z,957.6446
2023-04-26T06:20:48.440Z,957.6459
2023-04-26T06:21:49.169Z,957.6523
2023-04-26T06:22:49.939Z,957.6573
2023-04-26T06:23:50.942Z,957.6646
2023-04-26T06:24:52.004Z,957.6672
2023-04-26T06:25:52.669Z,957.6677
2023-04-26T06:26:53.414Z,957.6577
2023-04-26T06:27:54.163Z,957.6573
2023-04-26T06:28:54.890Z,957.6646
2023-04-26T06:29:55.605Z,957.6736
2023-04-26T06:30:56.450Z,957.6777
2023-04-26T06:31:57.173Z,957.6727
2023-04-26T06:32:58.032Z,957.6691
2023-04-26T06:33:58.779Z,957.6672
2023-04-26T06:34:59.509Z,957.6696
2023-04-26T06:36:00.223Z,957.6736
2023-04-26T06:37:00.994Z,957.6668
2023-04-26T06:38:01.689Z,957.6654
2023-04-26T06:39:02.419Z,957.6586
2023-04-26T06:40:03.124Z,957.6614
2023-04-26T06:41:03.863Z,957.6564
2023-04-26T06:42:04.633Z,957.6618
2023-04-26T06:43:05.370Z,957.6631
2023-04-26T06:44:06.126Z,957.6555
2023-04-26T06:45:06.881Z,957.6532
2023-04-26T06:46:07.602Z,957.6532
2023-04-26T06:47:08.311Z,957.6491
2023-04-26T06:48:09.098Z,957.6586
2023-04-26T06:49:09.870Z,957.6654
2023-04-26T06:50:10.614Z,957.6777
2023-04-26T06:51:11.390Z,957.6841
2023-04-26T06:52:12.215Z,957.6813
2023-04-26T06:53:12.922Z,957.6672
2023-04-26T06:54:13.708Z,957.6505
2023-04-26T06:55:14.442Z,957.6341
2023-04-26T06:56:15.133Z,957.6313
2023-04-26T06:57:15.874Z,957.6172
2023-04-26T06:58:16.824Z,957.6237
2023-04-26T06:59:17.572Z,957.6250
2023-04-26T07:00:18.317Z,957.6273
2023-04-26T07:01:19.069Z,957.6241
2023-04-26T07:02:20.068Z,957.6200
2023-04-26T07:03:21.033Z,957.6150
2023-04-26T07:04:22.047Z,957.6055
2023-04-26T07:05:22.911Z,957.5919
2023-04-26T07:06:23.677Z,957.5845
2023-04-26T07:07:24.355Z,957.5995
2023-04-26T07:08:25.100Z,957.6127
2023-04-26T07:09:25.804Z,957.6263
2023-04-26T07:10:26.535Z,957.6309
2023-04-26T07:11:27.270Z,957.6328
2023-04-26T07:12:27.960Z,957.6204
2023-04-26T07:13:28.658Z,957.6200
2023-04-26T07:14:29.343Z,957.6050
2023-04-26T07:15:30.041Z,957.6082
2023-04-26T07:16:30.803Z,957.6077
2023-04-26T07:17:31.600Z,957.6136
2023-04-26T07:18:32.323Z,957.6159
2023-04-26T07:19:33.093Z,957.6204
2023-04-26T07:20:33.871Z,957.6282
2023-04-26T07:21:34.570Z,957.6196
2023-04-26T07:22:35.296Z,957.6059
2023-04-26T07:23:36.090Z,957.6027
2023-04-26T07:24:36.774Z,957.5936
2023-04-26T07:25:37.488Z,957.5873
2023-04-26T07:26:38.208Z,957.5823
2023-04-26T07:27:38.967Z,957.5778
2023-04-26T07:28:39.688Z,957.5718
2023-04-26T07:29:40.435Z,957.5659
2023-04-26T07:30:41.145Z,957.5691
2023-04-26T07:31:41.817Z,957.5778
2023-04-26T07:32:42.659Z,957.5850
2023-04-26T07:33:43.505Z,957.5682
2023-04-26T07:34:44.251Z,957.5582
2023-04-26T07:35:44.988Z,957.5509
2023-04-26T07:36:45.705Z,957.5563
2023-04-26T07:37:46.412Z,957.5409
2023-04-26T07:38:47.179Z,957.5305
2023-04-26T07:39:47.837Z,957.5223
2023-04-26T07:40:48.567Z,957.5245
2023-04-26T07:41:49.238Z,957.5350
2023-04-26T07:42:49.975Z,957.5482
2023-04-26T07:43:50.882Z,957.5563
2023-04-26T07:44:51.973Z,957.5687
2023-04-26T07:45:52.727Z,957.5623
2023-04-26T07:46:53.416Z,957.5532
2023-04-26T07:47:54.781Z,957.5291
2023-04-26T07:48:55.884Z,957.5059
2023-04-26T07:49:56.603Z,957.4896
2023-04-26T07:50:57.327Z,957.4827
2023-04-26T07:51:58.023Z,957.4800
2023-04-26T07:52:58.769Z,957.4809
2023-04-26T07:53:59.440Z,957.4705
2023-04-26T07:55:00.161Z,957.4641
2023-04-26T07:56:00.882Z,957.4686
2023-04-26T07:57:01.636Z,957.4741
2023-04-26T07:58:02.314Z,957.4700
2023-04-26T07:59:03.053Z,957.4695
2023-04-26T08:00:03.744Z,957.4573
2023-04-26T08:01:04.443Z,957.4582
2023-04-26T08:02:05.199Z,957.4677
2023-04-26T08:03:06.108Z,957.4786
2023-04-26T08:04:07.435Z,957.4768
2023-04-26T08:05:08.445Z,957.4846
2023-04-26T08:06:09.233Z,957.4754
2023-04-26T08:07:09.968Z,957.4578
2023-04-26T08:08:10.616Z,957.4264
2023-04-26T08:09:12.499Z,957.3991
2023-04-26T08:10:13.331Z,957.3746
2023-04-26T08:11:14.082Z,957.3659
2023-04-26T08:12:14.830Z,957.3732
2023-04-26T08:13:15.509Z,957.3741
2023-04-26T08:14:16.399Z,957.3841
2023-04-26T08:15:17.103Z,957.3914
2023-04-26T08:16:17.830Z,957.4100
2023-04-26T08:17:18.568Z,957.4182
2023-04-26T08:18:19.292Z,957.4218
2023-04-26T08:19:20.069Z,957.4141
2023-04-26T08:20:20.769Z,957.4014
2023-04-26T08:21:21.510Z,957.3873
2023-04-26T08:22:22.254Z,957.3723
2023-04-26T08:23:22.983Z,957.3777
2023-04-26T08:24:23.884Z,957.3828
2023-04-26T08:25:24.768Z,957.3750
2023-04-26T08:26:25.494Z,957.3746
2023-04-26T08:27:26.236Z,957.3672
2023-04-26T08:28:26.925Z,957.3468
2023-04-26T08:29:27.684Z,957.3254
2023-04-26T08:30:28.411Z,957.3246
2023-04-26T08:31:29.256Z,957.3268
2023-04-26T08:32:30.066Z,957.3318
2023-04-26T08:33:30.762Z,957.3291
2023-04-26T08:34:31.505Z,957.3491
2023-04-26T08:35:32.271Z,957.3622
2023-04-26T08:36:32.962Z,957.3782
2023-04-26T08:37:33.660Z,957.3928
2023-04-26T08:38:34.426Z,957.4214
2023-04-26T08:39:35.160Z,957.4373
2023-04-26T08:40:35.885Z,957.4468
2023-04-26T08:41:36.595Z,957.4382
2023-04-26T08:42:38.002Z,957.4227
2023-04-26T08:43:38.976Z,957.4159
2023-04-26T08:44:39.674Z,957.3923
2023-04-26T08:45:40.495Z,957.3828
2023-04-26T08:46:41.226Z,957.3737
2023-04-26T08:47:42.022Z,957.3646
2023-04-26T08:48:42.727Z,957.3646
2023-04-26T08:49:43.443Z,957.3663
2023-04-26T08:50:44.109Z,957.3563
2023-04-26T08:51:44.855Z,957.3445
2023-04-26T08:52:45.632Z,957.3304
2023-04-26T08:53:46.298Z,957.3209
2023-04-26T08:54:47.036Z,957.3127
2023-04-26T08:55:47.724Z,957.3150
2023-04-26T08:56:48.415Z,957.3177
2023-04-26T08:57:49.105Z,957.3296
2023-04-26T08:58:49.790Z,957.3369
2023-04-26T08:59:50.524Z,957.3522
2023-04-26T09:00:51.383Z,957.3455
2023-04-26T09:01:52.119Z,957.3596
2023-04-26T09:02:53.197Z,957.3777
2023-04-26T09:03:54.585Z,957.3818
2023-04-26T09:04:55.973Z,957.3873
2023-04-26T09:05:56.930Z,957.3991
2023-04-26T09:06:57.652Z,957.4146
2023-04-26T09:07:58.344Z,957.4032
2023-04-26T09:08:59.036Z,957.4131
2023-04-26T09:09:59.840Z,957.4213
2023-04-26T09:11:00.531Z,957.4427
2023-04-26T09:12:01.230Z,957.4404
2023-04-26T09:13:01.957Z,957.4464
2023-04-26T09:14:02.662Z,957.4509
2023-04-26T09:15:03.372Z,957.4459
2023-04-26T09:16:05.267Z,957.4668
2023-04-26T09:17:06.323Z,957.4846
2023-04-26T09:18:07.043Z,957.5054
2023-04-26T09:19:07.769Z,957.5382
2023-04-26T09:20:08.608Z,957.5627
2023-04-26T09:21:09.305Z,957.5791
2023-04-26T09:22:10.026Z,957.5795
2023-04-26T09:23:10.736Z,957.5709
2023-04-26T09:24:11.404Z,957.5236
2023-04-26T09:25:12.103Z,957.5013
2023-04-26T09:26:12.791Z,957.4755
2023-04-26T09:27:13.509Z,957.4650
2023-04-26T09:28:14.182Z,957.4591
2023-04-26T09:29:14.970Z,957.4413
2023-04-26T09:30:15.665Z,957.4236
2023-04-26T09:31:16.399Z,957.4168
2023-04-26T09:32:17.079Z,957.4191
2023-04-26T09:33:17.897Z,957.4246
2023-04-26T09:34:18.568Z,957.4382
2023-04-26T09:35:19.278Z,957.4618
2023-04-26T09:36:19.946Z,957.4813
2023-04-26T09:37:20.627Z,957.4750
2023-04-26T09:38:21.364Z,957.4609
2023-04-26T09:39:22.031Z,957.4459
2023-04-26T09:40:22.788Z,957.4514
2023-04-26T09:41:23.518Z,957.4768
2023-04-26T09:42:24.192Z,957.4904
2023-04-26T09:43:24.826Z,957.4932
2023-04-26T09:44:25.469Z,957.4722
2023-04-26T09:45:26.119Z,957.4691
2023-04-26T09:46:26.843Z,957.4691
2023-04-26T09:47:27.474Z,957.4686
2023-04-26T09:48:28.113Z,957.4700
2023-04-26T09:49:28.766Z,957.4636
2023-04-26T09:50:29.459Z,957.4500
2023-04-26T09:51:30.145Z,957.4564
2023-04-26T09:52:30.792Z,957.4296
2023-04-26T09:53:31.434Z,957.4218
2023-04-26T09:54:32.046Z,957.4318
2023-04-26T09:55:35.468Z,957.4186
2023-04-26T09:56:33.819Z,957.4171
2023-04-26T09:57:34.472Z,957.4082
2023-04-26T09:58:35.093Z,957.3937
2023-04-26T09:59:35.725Z,957.3787
2023-04-26T10:00:36.386Z,957.3759
2023-04-26T10:01:37.088Z,957.3741
2023-04-26T10:02:37.808Z,957.3696
2023-04-26T10:03:38.798Z,957.3750
2023-04-26T10:04:39.788Z,957.3759
2023-04-26T10:05:40.455Z,957.3473
2023-04-26T10:06:41.147Z,957.3400
2023-04-26T10:07:41.875Z,957.3359
2023-04-26T10:08:42.570Z,957.3450
2023-04-26T10:09:43.208Z,957.3536
2023-04-26T10:10:43.929Z,957.3509
2023-04-26T10:11:44.576Z,957.3704
2023-04-26T10:12:45.264Z,957.3600
2023-04-26T10:13:45.991Z,957.3395
2023-04-26T10:14:46.694Z,957.3332
2023-04-26T10:15:47.406Z,957.3109
2023-04-26T10:16:48.112Z,957.3059
2023-04-26T10:17:50.239Z,957.3318
2023-04-26T10:18:50.185Z,957.3281
2023-04-26T10:19:50.939Z,957.3332
2023-04-26T10:20:51.609Z,957.3105
2023-04-26T10:21:52.289Z,957.2850
2023-04-26T10:22:52.963Z,957.2628
2023-04-26T10:23:53.700Z,957.2500
2023-04-26T10:24:54.391Z,957.2200
2023-04-26T10:25:55.082Z,957.1909
2023-04-26T10:26:55.810Z,957.1691
2023-04-26T10:27:56.525Z,957.1677
2023-04-26T10:29:02.098Z,957.1682
2023-04-26T10:29:58.330Z,957.1620
2023-04-26T10:30:58.996Z,957.1609
2023-04-26T10:31:59.653Z,957.1437
2023-04-26T10:33:00.331Z,957.1459
2023-04-26T10:34:00.948Z,957.1150
2023-04-26T10:35:01.621Z,957.1018
2023-04-26T10:36:02.260Z,957.0687
2023-04-26T10:37:02.995Z,957.0377
2023-04-26T10:38:03.638Z,957.0359
2023-04-26T10:39:04.261Z,957.0078
2023-04-26T10:40:04.863Z,956.9877
2023-04-26T10:41:05.545Z,957.0032
2023-04-26T10:42:06.171Z,957.0400
2023-04-26T10:43:06.806Z,957.0659
2023-04-26T10:44:07.421Z,957.0718
2023-04-26T10:45:08.054Z,957.0518
2023-04-26T10:46:08.695Z,957.0082
2023-04-26T10:47:09.284Z,956.9973
2023-04-26T10:48:09.964Z,956.9813
2023-04-26T10:49:10.589Z,956.9568
2023-04-26T10:50:11.215Z,956.9291
2023-04-26T10:51:11.958Z,956.9113
2023-04-26T10:52:12.554Z,956.8932
2023-04-26T10:53:13.198Z,956.8636
2023-04-26T10:54:13.836Z,956.8622
2023-04-26T10:55:14.469Z,956.8646
2023-04-26T10:56:15.083Z,956.8773
2023-04-26T10:57:15.716Z,956.8491
2023-04-26T10:58:16.323Z,956.8391
2023-04-26T10:59:36.125Z,956.8291
2023-04-26T11:00:18.001Z,956.8390
2023-04-26T11:01:18.751Z,956.8296
2023-04-26T11:02:19.408Z,956.8378
2023-04-26T11:03:20.104Z,956.8163
2023-04-26T11:04:20.897Z,956.7972
2023-04-26T11:05:23.557Z,956.7795
2023-04-26T11:06:22.670Z,956.7695
2023-04-26T11:07:23.291Z,956.7554
2023-04-26T11:08:23.934Z,956.7446
2023-04-26T11:09:24.552Z,956.7468
2023-04-26T11:10:25.219Z,956.7541
2023-04-26T11:11:25.905Z,956.7563
2023-04-26T11:12:26.586Z,956.7500
2023-04-26T11:13:27.211Z,956.7200
2023-04-26T11:14:27.872Z,956.7155
2023-04-26T11:15:28.506Z,956.7322
2023-04-26T11:16:29.302Z,956.7341
2023-04-26T11:17:30.002Z,956.7372
2023-04-26T11:18:30.629Z,956.7491
2023-04-26T11:19:31.256Z,956.7573
2023-04-26T11:20:31.830Z,956.7673
2023-04-26T11:21:32.444Z,956.7523
2023-04-26T11:22:33.023Z,956.7477
2023-04-26T11:23:33.849Z,956.7291
2023-04-26T11:24:34.448Z,956.7300
2023-04-26T11:25:35.041Z,956.7454
2023-04-26T11:26:35.652Z,956.7604
2023-04-26T11:27:36.163Z,956.7641
2023-04-26T11:28:36.737Z,956.7523
2023-04-26T11:29:37.331Z,956.7500
2023-04-26T11:30:38.506Z,956.7336
2023-04-26T11:31:39.460Z,956.7205
2023-04-26T11:32:40.120Z,956.7114
2023-04-26T11:33:40.699Z,956.6909
2023-04-26T11:34:41.297Z,956.6950
2023-04-26T11:35:41.869Z,956.6987
2023-04-26T11:36:42.473Z,956.7336
2023-04-26T11:37:43.051Z,956.7491
2023-04-26T11:38:43.694Z,956.7281
2023-04-26T11:39:44.318Z,956.7004
2023-04-26T11:40:44.867Z,956.6800
2023-04-26T11:41:45.436Z,956.6937
2023-04-26T11:42:46.029Z,956.6759
2023-04-26T11:43:46.634Z,956.6304
2023-04-26T11:44:47.879Z,956.6014
2023-04-26T11:45:48.608Z,956.5677
2023-04-26T11:46:49.291Z,956.5477
2023-04-26T11:47:49.899Z,956.5087
2023-04-26T11:48:50.425Z,956.5096
2023-04-26T11:49:51.070Z,956.5059
2023-04-26T11:50:51.614Z,956.5046
2023-04-26T11:51:52.218Z,956.5041
2023-04-26T11:52:52.773Z,956.4841